MPTO/PTY METAR and TAF weather

Enter ICAO airport designator
Station Type Date Time Source
MPTO METAR 2019/02/21 12:00 UTC NOAA

MPTO 211200Z 29003KT 8000 NSC 23/21 Q1009 NOSIG


Station Type Date Time Source
MPTO Decoded METAR 2019/02/21 12:00 UTC NOAA

Tocumen, Panama (MPTO) 09-03N 079-22W
Feb 21, 2019 - 07:00 AM EST / 2019.02.21 1200 UTC
Wind: from the WNW (290 degrees) at 3 MPH (3 KT):0
Visibility: 4 mile(s):0
Temperature: 73 F (23 C)
Dew Point: 69 F (21 C)
Relative Humidity: 88%
Pressure (altimeter): 29.80 in. Hg (1009 hPa)
ob: MPTO 211200Z 29003KT 8000 NSC 23/21 Q1009 NOSIG
cycle: 12

Station Type Date Time Source
MPTO TAF 2019/02/21 12:19 UTC NOAA

TAF MPTO 211100Z 2112/2218 30004KT 9999 FEW020
TEMPO 2118/2122 01010KT


Example: see airport list